sensor_id;sensor_type;location;lat;lon;timestamp;P1;durP1;ratioP1;P2;durP2;ratioP2
870;SDS011;422;51.280;7.236;2023-02-28T00:01:10;9.73;;;6.80;;
870;SDS011;422;51.280;7.236;2023-02-28T00:03:38;10.50;;;6.53;;
870;SDS011;422;51.280;7.236;2023-02-28T00:06:08;8.97;;;7.40;;
870;SDS011;422;51.280;7.236;2023-02-28T00:08:36;7.03;;;6.03;;
870;SDS011;422;51.280;7.236;2023-02-28T00:11:05;9.20;;;7.00;;
870;SDS011;422;51.280;7.236;2023-02-28T00:13:36;9.13;;;6.90;;
870;SDS011;422;51.280;7.236;2023-02-28T00:16:06;9.87;;;6.70;;
870;SDS011;422;51.280;7.236;2023-02-28T00:18:35;9.50;;;6.23;;
870;SDS011;422;51.280;7.236;2023-02-28T00:21:02;8.47;;;6.80;;
870;SDS011;422;51.280;7.236;2023-02-28T00:23:30;8.30;;;6.33;;
870;SDS011;422;51.280;7.236;2023-02-28T00:25:57;10.10;;;6.37;;
870;SDS011;422;51.280;7.236;2023-02-28T00:28:26;10.07;;;7.63;;
870;SDS011;422;51.280;7.236;2023-02-28T00:30:53;7.50;;;6.80;;
870;SDS011;422;51.280;7.236;2023-02-28T00:33:22;9.23;;;7.30;;
870;SDS011;422;51.280;7.236;2023-02-28T00:35:49;11.87;;;7.87;;
870;SDS011;422;51.280;7.236;2023-02-28T00:38:16;9.90;;;6.80;;
870;SDS011;422;51.280;7.236;2023-02-28T00:40:43;9.27;;;7.30;;
870;SDS011;422;51.280;7.236;2023-02-28T00:43:11;8.93;;;7.70;;
870;SDS011;422;51.280;7.236;2023-02-28T00:45:39;10.07;;;7.23;;
870;SDS011;422;51.280;7.236;2023-02-28T00:48:07;11.17;;;7.87;;
870;SDS011;422;51.280;7.236;2023-02-28T00:50:34;9.57;;;6.90;;
870;SDS011;422;51.280;7.236;2023-02-28T00:53:01;10.40;;;7.47;;
870;SDS011;422;51.280;7.236;2023-02-28T00:55:28;9.03;;;6.90;;
870;SDS011;422;51.280;7.236;2023-02-28T00:57:55;11.27;;;7.40;;
870;SDS011;422;51.280;7.236;2023-02-28T01:00:22;11.50;;;7.77;;
870;SDS011;422;51.280;7.236;2023-02-28T01:02:51;12.00;;;8.27;;
870;SDS011;422;51.280;7.236;2023-02-28T01:05:18;9.67;;;7.53;;
870;SDS011;422;51.280;7.236;2023-02-28T01:07:45;11.70;;;7.77;;
870;SDS011;422;51.280;7.236;2023-02-28T01:10:13;10.17;;;8.03;;
870;SDS011;422;51.280;7.236;2023-02-28T01:12:40;11.90;;;7.93;;
870;SDS011;422;51.280;7.236;2023-02-28T01:15:09;11.17;;;7.73;;
870;SDS011;422;51.280;7.236;2023-02-28T01:17:37;13.53;;;7.67;;
870;SDS011;422;51.280;7.236;2023-02-28T01:20:07;7.53;;;6.50;;
870;SDS011;422;51.280;7.236;2023-02-28T01:22:36;9.57;;;7.47;;
870;SDS011;422;51.280;7.236;2023-02-28T01:25:03;9.53;;;7.33;;
870;SDS011;422;51.280;7.236;2023-02-28T01:27:31;10.23;;;7.20;;
870;SDS011;422;51.280;7.236;2023-02-28T01:29:59;9.87;;;7.23;;
870;SDS011;422;51.280;7.236;2023-02-28T01:32:26;9.90;;;6.57;;
870;SDS011;422;51.280;7.236;2023-02-28T01:34:53;9.73;;;6.80;;
870;SDS011;422;51.280;7.236;2023-02-28T01:37:22;9.70;;;6.60;;
870;SDS011;422;51.280;7.236;2023-02-28T01:39:49;11.50;;;7.57;;
870;SDS011;422;51.280;7.236;2023-02-28T01:42:16;9.47;;;7.30;;
870;SDS011;422;51.280;7.236;2023-02-28T01:45:08;12.80;;;8.83;;
870;SDS011;422;51.280;7.236;2023-02-28T01:47:46;9.50;;;6.70;;
870;SDS011;422;51.280;7.236;2023-02-28T01:50:17;7.63;;;6.53;;
870;SDS011;422;51.280;7.236;2023-02-28T01:52:48;10.27;;;7.60;;
870;SDS011;422;51.280;7.236;2023-02-28T01:55:17;9.47;;;7.30;;
870;SDS011;422;51.280;7.236;2023-02-28T01:57:48;11.67;;;6.70;;
870;SDS011;422;51.280;7.236;2023-02-28T02:00:19;11.43;;;7.30;;
870;SDS011;422;51.280;7.236;2023-02-28T02:02:50;10.47;;;7.47;;
870;SDS011;422;51.280;7.236;2023-02-28T02:05:20;10.87;;;7.30;;
870;SDS011;422;51.280;7.236;2023-02-28T02:07:51;10.33;;;7.87;;
870;SDS011;422;51.280;7.236;2023-02-28T02:10:21;12.97;;;8.63;;
870;SDS011;422;51.280;7.236;2023-02-28T02:12:57;17.93;;;10.50;;
870;SDS011;422;51.280;7.236;2023-02-28T02:15:35;16.43;;;10.67;;
870;SDS011;422;51.280;7.236;2023-02-28T02:18:14;10.77;;;8.07;;
870;SDS011;422;51.280;7.236;2023-02-28T02:21:10;10.13;;;7.83;;
870;SDS011;422;51.280;7.236;2023-02-28T02:27:08;11.43;;;8.23;;
870;SDS011;422;51.280;7.236;2023-02-28T02:29:52;14.50;;;8.70;;
870;SDS011;422;51.280;7.236;2023-02-28T02:32:54;12.00;;;7.90;;
870;SDS011;422;51.280;7.236;2023-02-28T02:35:47;14.47;;;8.07;;
870;SDS011;422;51.280;7.236;2023-02-28T02:38:24;11.13;;;8.43;;
870;SDS011;422;51.280;7.236;2023-02-28T02:40:59;11.63;;;8.57;;
870;SDS011;422;51.280;7.236;2023-02-28T02:43:33;10.43;;;7.77;;
870;SDS011;422;51.280;7.236;2023-02-28T02:46:04;11.00;;;7.80;;
870;SDS011;422;51.280;7.236;2023-02-28T02:48:36;10.70;;;7.40;;
870;SDS011;422;51.280;7.236;2023-02-28T02:51:10;12.03;;;7.87;;
870;SDS011;422;51.280;7.236;2023-02-28T02:53:41;11.23;;;7.47;;
870;SDS011;422;51.280;7.236;2023-02-28T02:56:14;13.77;;;7.50;;
870;SDS011;422;51.280;7.236;2023-02-28T02:58:45;9.13;;;7.53;;
870;SDS011;422;51.280;7.236;2023-02-28T03:01:17;11.17;;;8.40;;
870;SDS011;422;51.280;7.236;2023-02-28T03:03:54;14.17;;;7.53;;
870;SDS011;422;51.280;7.236;2023-02-28T03:06:25;10.87;;;7.73;;
870;SDS011;422;51.280;7.236;2023-02-28T03:08:52;12.60;;;8.07;;
870;SDS011;422;51.280;7.236;2023-02-28T03:11:19;10.20;;;7.40;;
870;SDS011;422;51.280;7.236;2023-02-28T03:17:08;9.90;;;8.47;;
870;SDS011;422;51.280;7.236;2023-02-28T03:19:51;10.27;;;7.97;;
870;SDS011;422;51.280;7.236;2023-02-28T03:25:15;8.63;;;7.40;;
870;SDS011;422;51.280;7.236;2023-02-28T03:27:48;8.87;;;7.93;;
870;SDS011;422;51.280;7.236;2023-02-28T03:30:22;10.07;;;7.20;;
870;SDS011;422;51.280;7.236;2023-02-28T03:32:54;8.90;;;7.33;;
870;SDS011;422;51.280;7.236;2023-02-28T03:35:25;12.83;;;8.40;;
870;SDS011;422;51.280;7.236;2023-02-28T03:37:59;10.73;;;6.73;;
870;SDS011;422;51.280;7.236;2023-02-28T03:40:33;12.67;;;7.50;;
870;SDS011;422;51.280;7.236;2023-02-28T03:43:06;11.33;;;7.90;;
870;SDS011;422;51.280;7.236;2023-02-28T03:45:37;13.00;;;7.27;;
870;SDS011;422;51.280;7.236;2023-02-28T03:48:07;10.20;;;6.93;;
870;SDS011;422;51.280;7.236;2023-02-28T03:50:39;8.67;;;7.43;;
870;SDS011;422;51.280;7.236;2023-02-28T03:53:08;11.93;;;7.30;;
870;SDS011;422;51.280;7.236;2023-02-28T03:55:42;9.57;;;7.23;;
870;SDS011;422;51.280;7.236;2023-02-28T03:58:14;9.80;;;7.10;;
870;SDS011;422;51.280;7.236;2023-02-28T04:00:51;8.23;;;6.40;;
870;SDS011;422;51.280;7.236;2023-02-28T04:03:23;11.50;;;7.63;;
870;SDS011;422;51.280;7.236;2023-02-28T04:05:51;15.63;;;6.30;;
870;SDS011;422;51.280;7.236;2023-02-28T04:08:20;8.20;;;5.83;;
870;SDS011;422;51.280;7.236;2023-02-28T04:10:50;11.03;;;6.80;;
870;SDS011;422;51.280;7.236;2023-02-28T04:13:22;7.87;;;6.17;;
870;SDS011;422;51.280;7.236;2023-02-28T04:15:50;10.07;;;6.00;;
870;SDS011;422;51.280;7.236;2023-02-28T04:18:17;8.20;;;6.53;;
870;SDS011;422;51.280;7.236;2023-02-28T04:20:45;8.20;;;6.43;;
870;SDS011;422;51.280;7.236;2023-02-28T04:23:12;10.20;;;6.00;;
870;SDS011;422;51.280;7.236;2023-02-28T04:25:40;7.60;;;5.70;;
870;SDS011;422;51.280;7.236;2023-02-28T04:28:09;9.07;;;6.00;;
870;SDS011;422;51.280;7.236;2023-02-28T04:30:37;8.80;;;6.40;;
870;SDS011;422;51.280;7.236;2023-02-28T04:33:05;9.23;;;5.93;;
870;SDS011;422;51.280;7.236;2023-02-28T04:35:33;8.10;;;6.03;;
870;SDS011;422;51.280;7.236;2023-02-28T04:38:00;9.03;;;6.63;;
870;SDS011;422;51.280;7.236;2023-02-28T04:40:28;7.83;;;5.97;;
870;SDS011;422;51.280;7.236;2023-02-28T04:42:55;10.20;;;6.17;;
870;SDS011;422;51.280;7.236;2023-02-28T04:45:23;13.63;;;7.67;;
870;SDS011;422;51.280;7.236;2023-02-28T04:47:51;11.20;;;6.50;;
870;SDS011;422;51.280;7.236;2023-02-28T04:50:18;8.63;;;6.20;;
870;SDS011;422;51.280;7.236;2023-02-28T04:52:45;8.67;;;6.53;;
870;SDS011;422;51.280;7.236;2023-02-28T04:55:13;10.60;;;5.80;;
870;SDS011;422;51.280;7.236;2023-02-28T04:57:40;9.63;;;6.13;;
870;SDS011;422;51.280;7.236;2023-02-28T05:00:09;11.43;;;6.07;;
870;SDS011;422;51.280;7.236;2023-02-28T05:02:41;6.00;;;4.80;;
870;SDS011;422;51.280;7.236;2023-02-28T05:05:09;7.93;;;5.10;;
870;SDS011;422;51.280;7.236;2023-02-28T05:07:37;6.90;;;5.40;;
870;SDS011;422;51.280;7.236;2023-02-28T05:10:05;5.90;;;5.17;;
870;SDS011;422;51.280;7.236;2023-02-28T05:12:32;9.80;;;6.60;;
870;SDS011;422;51.280;7.236;2023-02-28T05:14:59;7.37;;;5.83;;
870;SDS011;422;51.280;7.236;2023-02-28T05:17:27;8.93;;;6.23;;
870;SDS011;422;51.280;7.236;2023-02-28T05:19:56;6.93;;;6.20;;
870;SDS011;422;51.280;7.236;2023-02-28T05:22:23;8.90;;;5.70;;
870;SDS011;422;51.280;7.236;2023-02-28T05:24:51;9.93;;;5.97;;
870;SDS011;422;51.280;7.236;2023-02-28T05:27:18;9.93;;;6.00;;
870;SDS011;422;51.280;7.236;2023-02-28T05:29:45;9.67;;;5.63;;
870;SDS011;422;51.280;7.236;2023-02-28T05:32:14;7.20;;;5.67;;
870;SDS011;422;51.280;7.236;2023-02-28T05:34:41;5.90;;;4.73;;
870;SDS011;422;51.280;7.236;2023-02-28T05:37:12;7.07;;;5.30;;
870;SDS011;422;51.280;7.236;2023-02-28T05:39:40;5.47;;;4.87;;
870;SDS011;422;51.280;7.236;2023-02-28T05:42:08;11.80;;;5.40;;
870;SDS011;422;51.280;7.236;2023-02-28T05:44:36;7.83;;;6.20;;
870;SDS011;422;51.280;7.236;2023-02-28T05:47:04;11.30;;;6.67;;
870;SDS011;422;51.280;7.236;2023-02-28T05:49:31;9.43;;;6.50;;
870;SDS011;422;51.280;7.236;2023-02-28T05:51:58;7.03;;;5.27;;
870;SDS011;422;51.280;7.236;2023-02-28T05:54:26;8.03;;;5.13;;
870;SDS011;422;51.280;7.236;2023-02-28T05:56:53;10.80;;;4.73;;
870;SDS011;422;51.280;7.236;2023-02-28T05:59:21;7.80;;;4.77;;
870;SDS011;422;51.280;7.236;2023-02-28T06:01:48;6.30;;;5.40;;
870;SDS011;422;51.280;7.236;2023-02-28T06:04:16;6.47;;;4.33;;
870;SDS011;422;51.280;7.236;2023-02-28T06:06:44;13.10;;;6.00;;
870;SDS011;422;51.280;7.236;2023-02-28T06:09:12;6.50;;;5.23;;
870;SDS011;422;51.280;7.236;2023-02-28T06:11:41;7.77;;;5.80;;
870;SDS011;422;51.280;7.236;2023-02-28T06:14:12;8.53;;;6.40;;
870;SDS011;422;51.280;7.236;2023-02-28T06:16:41;6.50;;;5.17;;
870;SDS011;422;51.280;7.236;2023-02-28T06:19:09;7.50;;;6.13;;
870;SDS011;422;51.280;7.236;2023-02-28T06:21:38;7.00;;;5.63;;
870;SDS011;422;51.280;7.236;2023-02-28T06:24:08;9.17;;;5.67;;
870;SDS011;422;51.280;7.236;2023-02-28T06:26:35;15.93;;;5.43;;
870;SDS011;422;51.280;7.236;2023-02-28T06:29:04;6.90;;;5.67;;
870;SDS011;422;51.280;7.236;2023-02-28T06:31:32;7.33;;;5.53;;
870;SDS011;422;51.280;7.236;2023-02-28T06:33:59;11.43;;;5.10;;
870;SDS011;422;51.280;7.236;2023-02-28T06:36:27;5.37;;;4.87;;
870;SDS011;422;51.280;7.236;2023-02-28T06:38:54;6.70;;;5.50;;
870;SDS011;422;51.280;7.236;2023-02-28T06:41:22;6.80;;;5.27;;
870;SDS011;422;51.280;7.236;2023-02-28T06:43:49;6.33;;;5.33;;
870;SDS011;422;51.280;7.236;2023-02-28T06:46:18;7.80;;;5.40;;
870;SDS011;422;51.280;7.236;2023-02-28T06:48:45;6.27;;;5.20;;
870;SDS011;422;51.280;7.236;2023-02-28T06:51:13;7.83;;;5.80;;
870;SDS011;422;51.280;7.236;2023-02-28T06:53:42;7.70;;;5.50;;
870;SDS011;422;51.280;7.236;2023-02-28T06:56:11;6.40;;;5.50;;
870;SDS011;422;51.280;7.236;2023-02-28T06:58:40;8.90;;;5.90;;
870;SDS011;422;51.280;7.236;2023-02-28T07:01:07;9.20;;;5.67;;
870;SDS011;422;51.280;7.236;2023-02-28T07:03:37;8.37;;;6.33;;
870;SDS011;422;51.280;7.236;2023-02-28T07:06:05;10.77;;;5.40;;
870;SDS011;422;51.280;7.236;2023-02-28T07:08:32;9.57;;;6.60;;
870;SDS011;422;51.280;7.236;2023-02-28T07:11:00;9.13;;;6.70;;
870;SDS011;422;51.280;7.236;2023-02-28T07:13:27;7.37;;;6.40;;
870;SDS011;422;51.280;7.236;2023-02-28T07:15:55;8.73;;;5.90;;
870;SDS011;422;51.280;7.236;2023-02-28T07:18:23;6.53;;;5.67;;
870;SDS011;422;51.280;7.236;2023-02-28T07:20:52;7.90;;;5.83;;
870;SDS011;422;51.280;7.236;2023-02-28T07:23:20;8.90;;;7.20;;
870;SDS011;422;51.280;7.236;2023-02-28T07:25:48;9.80;;;7.10;;
870;SDS011;422;51.280;7.236;2023-02-28T07:28:16;9.10;;;6.63;;
870;SDS011;422;51.280;7.236;2023-02-28T07:30:43;12.23;;;6.90;;
870;SDS011;422;51.280;7.236;2023-02-28T07:33:10;13.83;;;8.10;;
870;SDS011;422;51.280;7.236;2023-02-28T07:35:38;10.70;;;7.60;;
870;SDS011;422;51.280;7.236;2023-02-28T07:38:06;11.17;;;6.47;;
870;SDS011;422;51.280;7.236;2023-02-28T07:40:34;13.40;;;8.10;;
870;SDS011;422;51.280;7.236;2023-02-28T07:43:02;10.13;;;7.30;;
870;SDS011;422;51.280;7.236;2023-02-28T07:45:29;9.10;;;6.50;;
870;SDS011;422;51.280;7.236;2023-02-28T07:47:59;10.30;;;6.90;;
870;SDS011;422;51.280;7.236;2023-02-28T07:50:27;11.13;;;6.50;;
870;SDS011;422;51.280;7.236;2023-02-28T07:52:55;7.50;;;5.07;;
870;SDS011;422;51.280;7.236;2023-02-28T07:55:25;8.63;;;5.47;;
870;SDS011;422;51.280;7.236;2023-02-28T07:57:53;5.70;;;5.10;;
870;SDS011;422;51.280;7.236;2023-02-28T08:00:21;7.00;;;5.97;;
870;SDS011;422;51.280;7.236;2023-02-28T08:02:49;9.50;;;5.67;;
870;SDS011;422;51.280;7.236;2023-02-28T08:05:16;10.53;;;6.20;;
870;SDS011;422;51.280;7.236;2023-02-28T08:07:43;5.63;;;4.87;;
870;SDS011;422;51.280;7.236;2023-02-28T08:10:12;6.73;;;4.60;;
870;SDS011;422;51.280;7.236;2023-02-28T08:12:41;8.43;;;5.90;;
870;SDS011;422;51.280;7.236;2023-02-28T08:15:08;10.17;;;5.97;;
870;SDS011;422;51.280;7.236;2023-02-28T08:17:36;8.53;;;4.80;;
870;SDS011;422;51.280;7.236;2023-02-28T08:20:03;7.67;;;6.03;;
870;SDS011;422;51.280;7.236;2023-02-28T08:22:31;7.03;;;4.27;;
870;SDS011;422;51.280;7.236;2023-02-28T08:24:58;5.20;;;3.77;;
870;SDS011;422;51.280;7.236;2023-02-28T08:27:25;5.23;;;3.67;;
870;SDS011;422;51.280;7.236;2023-02-28T08:29:54;4.87;;;4.37;;
870;SDS011;422;51.280;7.236;2023-02-28T08:32:21;4.47;;;3.77;;
870;SDS011;422;51.280;7.236;2023-02-28T08:34:48;5.03;;;4.10;;
870;SDS011;422;51.280;7.236;2023-02-28T08:37:16;7.73;;;3.83;;
870;SDS011;422;51.280;7.236;2023-02-28T08:39:43;8.60;;;4.10;;
870;SDS011;422;51.280;7.236;2023-02-28T08:42:10;4.40;;;3.70;;
870;SDS011;422;51.280;7.236;2023-02-28T08:44:37;4.60;;;3.83;;
870;SDS011;422;51.280;7.236;2023-02-28T08:47:07;5.07;;;3.57;;
870;SDS011;422;51.280;7.236;2023-02-28T08:49:34;5.30;;;3.53;;
870;SDS011;422;51.280;7.236;2023-02-28T08:52:01;4.37;;;3.40;;
870;SDS011;422;51.280;7.236;2023-02-28T08:54:28;4.50;;;3.80;;
870;SDS011;422;51.280;7.236;2023-02-28T08:56:56;5.37;;;3.23;;
870;SDS011;422;51.280;7.236;2023-02-28T08:59:23;4.20;;;3.80;;
870;SDS011;422;51.280;7.236;2023-02-28T09:01:51;4.17;;;3.70;;
870;SDS011;422;51.280;7.236;2023-02-28T09:04:20;5.80;;;4.23;;
870;SDS011;422;51.280;7.236;2023-02-28T09:06:47;5.00;;;2.80;;
870;SDS011;422;51.280;7.236;2023-02-28T09:09:15;4.00;;;3.50;;
870;SDS011;422;51.280;7.236;2023-02-28T09:11:42;4.80;;;3.23;;
870;SDS011;422;51.280;7.236;2023-02-28T09:14:09;3.10;;;2.77;;
870;SDS011;422;51.280;7.236;2023-02-28T09:16:36;3.87;;;3.57;;
870;SDS011;422;51.280;7.236;2023-02-28T09:19:04;4.00;;;3.47;;
870;SDS011;422;51.280;7.236;2023-02-28T09:21:32;3.10;;;2.80;;
870;SDS011;422;51.280;7.236;2023-02-28T09:23:59;4.40;;;3.30;;
870;SDS011;422;51.280;7.236;2023-02-28T09:26:27;6.57;;;2.80;;
870;SDS011;422;51.280;7.236;2023-02-28T09:28:54;4.80;;;3.40;;
870;SDS011;422;51.280;7.236;2023-02-28T09:31:22;4.10;;;3.37;;
870;SDS011;422;51.280;7.236;2023-02-28T09:33:51;4.23;;;3.83;;
870;SDS011;422;51.280;7.236;2023-02-28T09:36:19;3.80;;;3.13;;
870;SDS011;422;51.280;7.236;2023-02-28T09:38:48;4.00;;;3.50;;
870;SDS011;422;51.280;7.236;2023-02-28T09:41:17;4.27;;;3.87;;
870;SDS011;422;51.280;7.236;2023-02-28T09:43:47;4.30;;;2.80;;
870;SDS011;422;51.280;7.236;2023-02-28T09:46:27;3.60;;;3.00;;
870;SDS011;422;51.280;7.236;2023-02-28T09:48:57;3.70;;;3.20;;
870;SDS011;422;51.280;7.236;2023-02-28T09:51:33;5.73;;;2.90;;
870;SDS011;422;51.280;7.236;2023-02-28T09:54:10;3.80;;;2.90;;
870;SDS011;422;51.280;7.236;2023-02-28T09:56:44;4.80;;;2.70;;
870;SDS011;422;51.280;7.236;2023-02-28T09:59:14;3.43;;;2.43;;
870;SDS011;422;51.280;7.236;2023-02-28T10:01:50;3.43;;;2.53;;
870;SDS011;422;51.280;7.236;2023-02-28T10:04:31;3.97;;;2.70;;
870;SDS011;422;51.280;7.236;2023-02-28T10:07:06;3.37;;;2.50;;
870;SDS011;422;51.280;7.236;2023-02-28T10:09:46;2.57;;;2.27;;
870;SDS011;422;51.280;7.236;2023-02-28T10:12:18;5.53;;;3.00;;
870;SDS011;422;51.280;7.236;2023-02-28T10:14:47;6.00;;;2.90;;
870;SDS011;422;51.280;7.236;2023-02-28T10:17:17;6.40;;;2.73;;
870;SDS011;422;51.280;7.236;2023-02-28T10:19:50;2.67;;;2.30;;
870;SDS011;422;51.280;7.236;2023-02-28T10:22:26;5.60;;;2.90;;
870;SDS011;422;51.280;7.236;2023-02-28T10:25:04;2.93;;;2.63;;
870;SDS011;422;51.280;7.236;2023-02-28T10:27:42;2.90;;;2.60;;
870;SDS011;422;51.280;7.236;2023-02-28T10:30:10;4.17;;;2.67;;
870;SDS011;422;51.280;7.236;2023-02-28T10:32:39;3.43;;;2.63;;
870;SDS011;422;51.280;7.236;2023-02-28T10:35:14;5.57;;;3.10;;
870;SDS011;422;51.280;7.236;2023-02-28T10:37:43;4.20;;;3.30;;
870;SDS011;422;51.280;7.236;2023-02-28T10:40:25;3.77;;;2.63;;
870;SDS011;422;51.280;7.236;2023-02-28T10:42:56;3.00;;;2.60;;
870;SDS011;422;51.280;7.236;2023-02-28T10:45:25;3.60;;;3.30;;
870;SDS011;422;51.280;7.236;2023-02-28T10:47:55;4.20;;;2.40;;
870;SDS011;422;51.280;7.236;2023-02-28T10:50:27;4.47;;;2.93;;
870;SDS011;422;51.280;7.236;2023-02-28T10:53:05;3.20;;;2.90;;
870;SDS011;422;51.280;7.236;2023-02-28T10:55:41;2.80;;;2.60;;
870;SDS011;422;51.280;7.236;2023-02-28T10:58:20;3.43;;;3.13;;
870;SDS011;422;51.280;7.236;2023-02-28T11:00:48;3.03;;;2.73;;
870;SDS011;422;51.280;7.236;2023-02-28T11:03:24;2.93;;;2.60;;
870;SDS011;422;51.280;7.236;2023-02-28T11:05:55;5.73;;;3.10;;
870;SDS011;422;51.280;7.236;2023-02-28T11:08:23;3.00;;;2.70;;
870;SDS011;422;51.280;7.236;2023-02-28T11:10:55;4.50;;;2.73;;
870;SDS011;422;51.280;7.236;2023-02-28T11:13:26;4.00;;;2.97;;
870;SDS011;422;51.280;7.236;2023-02-28T11:15:57;4.23;;;3.17;;
870;SDS011;422;51.280;7.236;2023-02-28T11:18:27;7.63;;;3.10;;
870;SDS011;422;51.280;7.236;2023-02-28T11:20:58;2.93;;;2.50;;
870;SDS011;422;51.280;7.236;2023-02-28T11:23:28;3.40;;;2.83;;
870;SDS011;422;51.280;7.236;2023-02-28T11:26:01;4.30;;;2.93;;
870;SDS011;422;51.280;7.236;2023-02-28T11:28:30;2.90;;;2.70;;
870;SDS011;422;51.280;7.236;2023-02-28T11:31:06;4.23;;;3.20;;
870;SDS011;422;51.280;7.236;2023-02-28T11:33:44;4.53;;;3.37;;
870;SDS011;422;51.280;7.236;2023-02-28T11:36:17;3.50;;;3.20;;
870;SDS011;422;51.280;7.236;2023-02-28T11:38:46;5.30;;;3.40;;
870;SDS011;422;51.280;7.236;2023-02-28T11:41:26;4.90;;;3.27;;
870;SDS011;422;51.280;7.236;2023-02-28T11:44:11;4.00;;;3.63;;
870;SDS011;422;51.280;7.236;2023-02-28T11:47:02;3.27;;;2.97;;
870;SDS011;422;51.280;7.236;2023-02-28T11:49:37;3.43;;;3.17;;
870;SDS011;422;51.280;7.236;2023-02-28T11:52:17;3.63;;;2.93;;
870;SDS011;422;51.280;7.236;2023-02-28T11:54:58;4.17;;;3.10;;
870;SDS011;422;51.280;7.236;2023-02-28T11:57:35;4.63;;;3.53;;
870;SDS011;422;51.280;7.236;2023-02-28T12:00:15;3.57;;;3.27;;
870;SDS011;422;51.280;7.236;2023-02-28T12:02:57;4.03;;;2.93;;
870;SDS011;422;51.280;7.236;2023-02-28T12:05:36;3.30;;;3.00;;
870;SDS011;422;51.280;7.236;2023-02-28T12:08:15;3.83;;;3.00;;
870;SDS011;422;51.280;7.236;2023-02-28T12:10:56;3.60;;;3.30;;
870;SDS011;422;51.280;7.236;2023-02-28T12:13:37;3.83;;;3.43;;
870;SDS011;422;51.280;7.236;2023-02-28T12:16:18;3.33;;;3.03;;
870;SDS011;422;51.280;7.236;2023-02-28T12:19:10;5.13;;;3.30;;
870;SDS011;422;51.280;7.236;2023-02-28T12:21:48;3.40;;;3.10;;
870;SDS011;422;51.280;7.236;2023-02-28T12:24:40;3.50;;;3.20;;
870;SDS011;422;51.280;7.236;2023-02-28T12:27:21;3.23;;;2.60;;
870;SDS011;422;51.280;7.236;2023-02-28T12:29:54;4.40;;;3.17;;
870;SDS011;422;51.280;7.236;2023-02-28T12:32:26;4.40;;;3.43;;
870;SDS011;422;51.280;7.236;2023-02-28T12:34:57;3.77;;;3.40;;
870;SDS011;422;51.280;7.236;2023-02-28T12:37:31;5.50;;;3.30;;
870;SDS011;422;51.280;7.236;2023-02-28T12:40:06;5.10;;;3.50;;
870;SDS011;422;51.280;7.236;2023-02-28T12:42:38;4.83;;;3.57;;
870;SDS011;422;51.280;7.236;2023-02-28T12:45:10;4.77;;;3.40;;
870;SDS011;422;51.280;7.236;2023-02-28T12:47:42;5.20;;;3.40;;
870;SDS011;422;51.280;7.236;2023-02-28T12:50:12;5.13;;;3.50;;
870;SDS011;422;51.280;7.236;2023-02-28T12:52:41;4.10;;;3.30;;
870;SDS011;422;51.280;7.236;2023-02-28T12:55:14;4.70;;;3.40;;
870;SDS011;422;51.280;7.236;2023-02-28T12:57:48;6.47;;;3.07;;
870;SDS011;422;51.280;7.236;2023-02-28T13:00:24;3.67;;;3.37;;
870;SDS011;422;51.280;7.236;2023-02-28T13:06:15;3.53;;;3.23;;
870;SDS011;422;51.280;7.236;2023-02-28T13:09:02;3.03;;;2.67;;
870;SDS011;422;51.280;7.236;2023-02-28T13:11:32;3.50;;;3.20;;
870;SDS011;422;51.280;7.236;2023-02-28T13:14:05;3.60;;;3.30;;
870;SDS011;422;51.280;7.236;2023-02-28T13:16:55;4.53;;;3.03;;
870;SDS011;422;51.280;7.236;2023-02-28T13:19:26;5.17;;;3.43;;
870;SDS011;422;51.280;7.236;2023-02-28T13:21:55;5.63;;;3.43;;
870;SDS011;422;51.280;7.236;2023-02-28T13:24:40;4.50;;;3.33;;
870;SDS011;422;51.280;7.236;2023-02-28T13:27:11;4.70;;;3.80;;
870;SDS011;422;51.280;7.236;2023-02-28T13:29:49;3.73;;;3.43;;
870;SDS011;422;51.280;7.236;2023-02-28T13:32:29;5.13;;;3.50;;
870;SDS011;422;51.280;7.236;2023-02-28T13:35:14;8.27;;;3.83;;
870;SDS011;422;51.280;7.236;2023-02-28T13:38:09;3.87;;;3.47;;
870;SDS011;422;51.280;7.236;2023-02-28T13:44:05;3.83;;;3.50;;
870;SDS011;422;51.280;7.236;2023-02-28T13:46:34;4.20;;;3.40;;
870;SDS011;422;51.280;7.236;2023-02-28T13:49:19;3.30;;;2.73;;
870;SDS011;422;51.280;7.236;2023-02-28T13:51:51;4.23;;;3.20;;
870;SDS011;422;51.280;7.236;2023-02-28T13:54:23;3.90;;;3.60;;
870;SDS011;422;51.280;7.236;2023-02-28T13:57:03;3.93;;;3.63;;
870;SDS011;422;51.280;7.236;2023-02-28T13:59:46;3.70;;;3.40;;
870;SDS011;422;51.280;7.236;2023-02-28T14:05:28;6.57;;;4.27;;
870;SDS011;422;51.280;7.236;2023-02-28T14:07:58;3.63;;;3.37;;
870;SDS011;422;51.280;7.236;2023-02-28T14:10:31;4.27;;;3.83;;
870;SDS011;422;51.280;7.236;2023-02-28T14:13:03;4.77;;;3.30;;
870;SDS011;422;51.280;7.236;2023-02-28T14:15:43;4.90;;;3.70;;
870;SDS011;422;51.280;7.236;2023-02-28T14:18:22;4.20;;;3.80;;
870;SDS011;422;51.280;7.236;2023-02-28T14:20:54;4.10;;;3.70;;
870;SDS011;422;51.280;7.236;2023-02-28T14:23:33;5.53;;;4.33;;
870;SDS011;422;51.280;7.236;2023-02-28T14:26:27;5.00;;;4.00;;
870;SDS011;422;51.280;7.236;2023-02-28T14:29:08;4.73;;;4.33;;
870;SDS011;422;51.280;7.236;2023-02-28T14:31:54;4.83;;;3.83;;
870;SDS011;422;51.280;7.236;2023-02-28T14:37:20;4.10;;;3.70;;
870;SDS011;422;51.280;7.236;2023-02-28T14:39:52;4.20;;;3.80;;
870;SDS011;422;51.280;7.236;2023-02-28T14:42:27;3.90;;;3.60;;
870;SDS011;422;51.280;7.236;2023-02-28T14:44:56;4.40;;;4.00;;
870;SDS011;422;51.280;7.236;2023-02-28T14:47:24;9.53;;;4.23;;
870;SDS011;422;51.280;7.236;2023-02-28T14:49:54;4.50;;;4.10;;
870;SDS011;422;51.280;7.236;2023-02-28T14:52:23;5.10;;;4.53;;
870;SDS011;422;51.280;7.236;2023-02-28T14:54:54;4.10;;;3.57;;
870;SDS011;422;51.280;7.236;2023-02-28T14:57:24;6.70;;;4.63;;
870;SDS011;422;51.280;7.236;2023-02-28T14:59:57;4.23;;;3.83;;
870;SDS011;422;51.280;7.236;2023-02-28T15:02:29;4.57;;;4.13;;
870;SDS011;422;51.280;7.236;2023-02-28T15:04:58;5.27;;;3.97;;
870;SDS011;422;51.280;7.236;2023-02-28T15:07:28;5.37;;;3.43;;
870;SDS011;422;51.280;7.236;2023-02-28T15:10:13;7.27;;;4.00;;
870;SDS011;422;51.280;7.236;2023-02-28T15:12:45;5.20;;;4.30;;
870;SDS011;422;51.280;7.236;2023-02-28T15:15:19;5.40;;;4.47;;
870;SDS011;422;51.280;7.236;2023-02-28T15:17:49;4.10;;;3.70;;
870;SDS011;422;51.280;7.236;2023-02-28T15:20:19;5.07;;;4.50;;
870;SDS011;422;51.280;7.236;2023-02-28T15:22:49;4.97;;;4.57;;
870;SDS011;422;51.280;7.236;2023-02-28T15:25:20;8.13;;;4.03;;
870;SDS011;422;51.280;7.236;2023-02-28T15:27:49;5.07;;;4.00;;
870;SDS011;422;51.280;7.236;2023-02-28T15:30:20;6.63;;;4.07;;
870;SDS011;422;51.280;7.236;2023-02-28T15:33:07;4.70;;;4.00;;
870;SDS011;422;51.280;7.236;2023-02-28T15:35:45;4.53;;;4.13;;
870;SDS011;422;51.280;7.236;2023-02-28T15:38:16;3.80;;;3.40;;
870;SDS011;422;51.280;7.236;2023-02-28T15:40:45;6.27;;;4.17;;
870;SDS011;422;51.280;7.236;2023-02-28T15:43:19;4.57;;;4.17;;
870;SDS011;422;51.280;7.236;2023-02-28T15:45:51;8.80;;;4.50;;
870;SDS011;422;51.280;7.236;2023-02-28T15:48:21;6.23;;;5.10;;
870;SDS011;422;51.280;7.236;2023-02-28T15:50:51;11.70;;;5.30;;
870;SDS011;422;51.280;7.236;2023-02-28T15:53:22;7.20;;;5.23;;
870;SDS011;422;51.280;7.236;2023-02-28T15:55:54;4.90;;;4.40;;
870;SDS011;422;51.280;7.236;2023-02-28T15:58:23;5.17;;;4.37;;
870;SDS011;422;51.280;7.236;2023-02-28T16:01:04;6.90;;;4.10;;
870;SDS011;422;51.280;7.236;2023-02-28T16:03:40;7.30;;;4.40;;
870;SDS011;422;51.280;7.236;2023-02-28T16:09:02;5.63;;;5.07;;
870;SDS011;422;51.280;7.236;2023-02-28T16:11:33;7.53;;;4.30;;
870;SDS011;422;51.280;7.236;2023-02-28T16:14:02;5.03;;;4.53;;
870;SDS011;422;51.280;7.236;2023-02-28T16:16:29;6.00;;;4.60;;
870;SDS011;422;51.280;7.236;2023-02-28T16:18:58;6.20;;;4.30;;
870;SDS011;422;51.280;7.236;2023-02-28T16:21:25;6.60;;;4.80;;
870;SDS011;422;51.280;7.236;2023-02-28T16:23:52;6.00;;;5.13;;
870;SDS011;422;51.280;7.236;2023-02-28T16:26:22;6.17;;;4.83;;
870;SDS011;422;51.280;7.236;2023-02-28T16:28:52;4.50;;;4.10;;
870;SDS011;422;51.280;7.236;2023-02-28T16:31:20;5.53;;;5.03;;
870;SDS011;422;51.280;7.236;2023-02-28T16:33:47;6.03;;;5.43;;